Time;durP1;ratioP1;P1;durP2;ratioP2;P2;SDS_P1;SDS_P2;PMS_P1;PMS_P2;Temp;Humidity;BMP_temperature;BMP_pressure;BME280_temperature;BME280_humidity;BME280_pressure;Samples;Min_cycle;Max_cycle;Signal;HPM_P1;HPM_P2
2022/12/13 00:00:18;;;;;;;59.80;26.60;;;-5.80;99.90;;;;;;5068495;28;20051;-50
2022/12/13 00:02:45;;;;;;;56.28;25.02;;;-5.80;99.90;;;;;;5067621;28;20102;-49
2022/12/13 00:05:12;;;;;;;57.08;25.52;;;-5.80;99.90;;;;;;5068027;28;20044;-49
2022/12/13 00:07:37;;;;;;;53.53;24.20;;;-5.70;99.90;;;;;;5067828;28;20158;-50
2022/12/13 00:10:04;;;;;;;57.38;25.88;;;-5.70;99.90;;;;;;5067520;28;20072;-51
2022/12/13 00:12:31;;;;;;;59.33;27.30;;;-5.80;99.90;;;;;;5085128;28;20045;-50
2022/12/13 00:14:56;;;;;;;55.45;26.73;;;-5.80;99.90;;;;;;5086930;28;20177;-49
2022/12/13 00:17:22;;;;;;;61.22;27.58;;;-5.80;99.90;;;;;;5071201;28;20119;-51
2022/12/13 00:19:48;;;;;;;59.80;26.33;;;-5.80;99.90;;;;;;5086428;28;20051;-50
2022/12/13 00:22:15;;;;;;;64.60;27.67;;;-5.80;99.90;;;;;;5071809;28;20444;-49
2022/12/13 00:24:41;;;;;;;63.33;25.77;;;-5.80;99.90;;;;;;5069842;28;20052;-51
2022/12/13 00:27:07;;;;;;;64.97;28.00;;;-5.70;99.90;;;;;;5071631;28;20055;-49
2022/12/13 00:29:33;;;;;;;56.78;26.70;;;-5.70;99.90;;;;;;5070186;28;20052;-48
2022/12/13 00:31:59;;;;;;;54.72;23.65;;;-5.80;99.90;;;;;;5070809;28;20045;-49
2022/12/13 00:34:25;;;;;;;58.25;25.15;;;-5.80;99.90;;;;;;5069843;28;20397;-49
2022/12/13 00:36:53;;;;;;;61.28;26.98;;;-5.90;99.90;;;;;;5086188;28;20541;-49
2022/12/13 00:39:18;;;;;;;64.07;26.20;;;-5.90;99.90;;;;;;5071438;28;20055;-51
2022/12/13 00:41:44;;;;;;;60.92;24.52;;;-5.90;99.90;;;;;;5070795;28;20494;-50
2022/12/13 00:44:12;;;;;;;61.08;24.95;;;-5.90;99.90;;;;;;5085851;28;20064;-51
2022/12/13 00:46:38;;;;;;;59.85;25.00;;;-5.90;99.90;;;;;;5070782;28;20663;-50
2022/12/13 00:49:04;;;;;;;61.20;24.65;;;-5.90;99.90;;;;;;5085976;28;20057;-48
2022/12/13 00:51:31;;;;;;;57.22;23.92;;;-5.90;99.90;;;;;;5086742;28;20048;-48
2022/12/13 00:53:58;;;;;;;56.88;23.98;;;-6.00;99.90;;;;;;5086293;28;20402;-47
2022/12/13 00:56:27;;;;;;;54.70;25.20;;;-6.10;99.90;;;;;;5070368;28;20048;-51
2022/12/13 00:58:53;;;;;;;56.15;24.13;;;-6.20;99.90;;;;;;5070953;28;20044;-50
2022/12/13 01:01:29;;;;;;;56.70;23.83;;;-6.20;99.90;;;;;;5070840;28;20136;-52
2022/12/13 01:03:58;;;;;;;53.08;24.35;;;-6.30;99.90;;;;;;5070460;28;20045;-49
2022/12/13 01:06:36;;;;;;;59.83;24.70;;;-6.30;99.90;;;;;;5070655;28;20110;-49
2022/12/13 01:09:04;;;;;;;60.50;24.33;;;-6.40;99.90;;;;;;5070235;28;20032;-49
2022/12/13 01:11:29;;;;;;;59.03;25.38;;;-6.40;99.90;;;;;;5070214;28;20048;-48
2022/12/13 01:13:55;;;;;;;57.05;24.38;;;-6.40;99.90;;;;;;5069141;28;20041;-48
2022/12/13 01:16:21;;;;;;;52.58;25.58;;;-6.50;99.90;;;;;;5070155;28;20049;-48
2022/12/13 01:18:46;;;;;;;56.88;25.05;;;-6.50;99.90;;;;;;5085433;28;20419;-49
2022/12/13 01:21:15;;;;;;;55.42;25.35;;;-6.60;99.90;;;;;;5070018;28;20432;-50
2022/12/13 01:23:41;;;;;;;56.70;25.40;;;-6.60;99.90;;;;;;5085034;28;20097;-48
2022/12/13 01:26:12;;;;;;;54.58;23.65;;;-6.60;99.90;;;;;;5084976;28;20048;-47
2022/12/13 01:28:39;;;;;;;50.88;24.33;;;-6.60;99.90;;;;;;5085196;28;20505;-47
2022/12/13 01:31:10;;;;;;;57.38;24.08;;;-6.60;99.90;;;;;;5069507;28;20046;-49
2022/12/13 01:33:36;;;;;;;52.92;23.90;;;-6.70;99.90;;;;;;5069939;28;20063;-49
2022/12/13 01:36:07;;;;;;;51.47;23.90;;;-6.60;99.90;;;;;;5084593;28;20052;-47
2022/12/13 01:38:34;;;;;;;56.95;25.17;;;-6.60;99.90;;;;;;5085397;28;20127;-48
2022/12/13 01:40:59;;;;;;;58.83;24.92;;;-6.50;99.90;;;;;;5068147;28;20087;-49
2022/12/13 01:43:47;;;;;;;54.63;24.52;;;-6.40;99.90;;;;;;5084822;28;20080;-52
2022/12/13 01:46:15;;;;;;;52.95;24.25;;;-6.30;99.90;;;;;;5068841;28;20058;-48
2022/12/13 01:48:46;;;;;;;52.72;25.02;;;-6.30;99.90;;;;;;5084536;28;20040;-47
2022/12/13 01:51:14;;;;;;;56.47;24.75;;;-6.40;99.90;;;;;;5068992;28;20048;-48
2022/12/13 01:53:42;;;;;;;58.42;24.08;;;-6.50;99.90;;;;;;5069297;28;20053;-48
2022/12/13 01:56:13;;;;;;;57.00;24.17;;;-6.40;99.90;;;;;;5084343;28;20755;-51
2022/12/13 01:58:39;;;;;;;55.00;24.25;;;-6.40;99.90;;;;;;5084438;28;20470;-47
2022/12/13 02:01:05;;;;;;;52.88;23.75;;;-6.30;99.90;;;;;;5069027;28;20045;-50
2022/12/13 02:03:32;;;;;;;60.72;25.77;;;-6.30;99.90;;;;;;5069186;28;20040;-48
2022/12/13 02:06:10;;;;;;;56.67;24.30;;;-6.30;99.90;;;;;;5069354;28;20040;-48
2022/12/13 02:08:37;;;;;;;59.95;24.73;;;-6.20;99.90;;;;;;5069661;28;20387;-51
2022/12/13 02:11:04;;;;;;;62.95;26.63;;;-6.20;99.90;;;;;;5084314;28;20044;-50
2022/12/13 02:13:30;;;;;;;61.95;25.00;;;-6.30;99.90;;;;;;5068919;28;20040;-47
2022/12/13 02:16:23;;;;;;;55.63;26.50;;;-6.40;99.90;;;;;;5068160;28;20277;-48
2022/12/13 02:19:15;;;;;;;56.45;25.17;;;-6.30;99.90;;;;;;5069186;28;20040;-51
2022/12/13 02:21:56;;;;;;;55.63;22.50;;;-6.40;99.90;;;;;;5067736;28;20053;-52
2022/12/13 02:25:02;;;;;;;57.13;24.73;;;-6.50;99.90;;;;;;5069046;28;20057;-49
2022/12/13 02:27:34;;;;;;;61.15;25.17;;;-6.50;99.90;;;;;;5068474;28;20743;-48
2022/12/13 02:30:21;;;;;;;57.63;25.83;;;-6.60;99.90;;;;;;5068614;28;20037;-48
2022/12/13 02:33:11;;;;;;;48.85;22.73;;;-6.60;99.90;;;;;;5068441;28;20588;-47
2022/12/13 02:35:43;;;;;;;58.03;23.77;;;-6.70;99.90;;;;;;5067575;28;20072;-50
2022/12/13 02:38:34;;;;;;;50.60;25.05;;;-6.60;99.90;;;;;;5068085;28;20517;-49
2022/12/13 02:41:19;;;;;;;51.00;24.10;;;-6.60;99.90;;;;;;5068490;28;20036;-48
2022/12/13 02:43:52;;;;;;;61.80;24.98;;;-6.70;99.90;;;;;;5068066;28;20056;-49
2022/12/13 02:46:19;;;;;;;;;;;-6.60;99.90;;;;;;5066924;28;20563;-47
2022/12/13 02:48:47;;;;;;;55.88;22.95;;;-6.60;99.90;;;;;;5068018;28;19923;-50
2022/12/13 02:51:15;;;;;;;55.10;23.55;;;-6.70;99.90;;;;;;5068095;28;20505;-49
2022/12/13 02:53:43;;;;;;;45.00;22.17;;;-6.80;99.90;;;;;;5068094;28;20414;-48
2022/12/13 02:56:09;;;;;;;50.10;24.13;;;-6.80;99.90;;;;;;5067475;28;20172;-48
2022/12/13 02:58:43;;;;;;;49.22;22.48;;;-6.80;99.90;;;;;;5068415;28;20036;-48
2022/12/13 03:01:17;;;;;;;54.85;23.38;;;-6.90;99.90;;;;;;5067959;28;20543;-50
2022/12/13 03:04:05;;;;;;;52.97;23.60;;;-6.90;99.90;;;;;;5067925;28;20063;-51
2022/12/13 03:07:00;;;;;;;46.15;21.50;;;-6.90;99.90;;;;;;5066355;28;20138;-48
2022/12/13 03:09:35;;;;;;;56.72;22.90;;;-6.90;99.90;;;;;;5068014;28;20143;-47
2022/12/13 03:15:09;;;;;;;50.03;23.70;;;-6.90;99.90;;;;;;5066250;28;20048;-49
2022/12/13 03:17:40;;;;;;;55.05;24.55;;;-6.70;99.90;;;;;;5083062;28;20057;-49
2022/12/13 03:20:07;;;;;;;55.72;25.52;;;-6.80;99.90;;;;;;5067824;28;20067;-51
2022/12/13 03:22:33;;;;;;;56.65;24.33;;;-6.70;99.90;;;;;;5067869;28;20382;-48
2022/12/13 03:25:00;;;;;;;52.15;24.83;;;-6.70;99.90;;;;;;5067964;28;20505;-48
2022/12/13 03:27:26;;;;;;;61.42;25.42;;;-6.70;99.90;;;;;;5067633;28;20033;-49
2022/12/13 03:29:51;;;;;;;58.20;23.95;;;-6.60;99.90;;;;;;5067560;28;20051;-49
2022/12/13 03:32:17;;;;;;;62.65;25.30;;;-6.70;99.90;;;;;;5067324;28;20459;-48
2022/12/13 03:34:43;;;;;;;57.20;25.88;;;-6.70;99.90;;;;;;5067865;28;20044;-47
2022/12/13 03:37:09;;;;;;;56.20;25.02;;;-6.70;99.90;;;;;;5067227;28;20122;-48
2022/12/13 03:39:34;;;;;;;62.58;25.10;;;-6.70;99.90;;;;;;5067967;28;20036;-48
2022/12/13 03:42:00;;;;;;;54.20;24.00;;;-6.80;99.90;;;;;;5067559;28;20113;-52
2022/12/13 03:44:26;;;;;;;58.00;23.77;;;-6.80;99.90;;;;;;5067262;28;20106;-48
2022/12/13 03:46:52;;;;;;;51.90;24.75;;;-6.80;99.90;;;;;;5066687;28;20051;-48
2022/12/13 03:49:17;;;;;;;55.17;24.33;;;-6.80;99.90;;;;;;5067193;28;20040;-47
2022/12/13 03:51:43;;;;;;;59.33;26.25;;;-6.80;99.90;;;;;;5067653;28;20086;-49
2022/12/13 03:54:09;;;;;;;54.47;23.70;;;-6.80;99.90;;;;;;5065731;28;20040;-46
2022/12/13 03:56:35;;;;;;;54.97;24.85;;;-6.90;99.90;;;;;;5067316;28;20141;-48
2022/12/13 03:59:01;;;;;;;52.00;23.85;;;-6.90;99.90;;;;;;5067499;28;20059;-51
2022/12/13 04:01:27;;;;;;;51.88;23.92;;;-6.90;99.90;;;;;;5067041;28;20044;-48
2022/12/13 04:03:52;;;;;;;57.45;25.40;;;-6.80;99.90;;;;;;5067209;28;20041;-48
2022/12/13 04:06:18;;;;;;;52.80;24.67;;;-6.90;99.90;;;;;;5066958;28;20048;-47
2022/12/13 04:08:44;;;;;;;59.90;26.00;;;-6.90;99.90;;;;;;5066948;28;20147;-48
2022/12/13 04:13:54;;;;;;;63.90;25.20;;;-6.90;99.90;;;;;;5067158;28;20094;-48
2022/12/13 04:16:20;;;;;;;55.45;24.92;;;-6.90;99.90;;;;;;5067039;28;20549;-47
2022/12/13 04:18:46;;;;;;;53.70;23.63;;;-6.90;99.90;;;;;;5066780;28;20170;-47
2022/12/13 04:21:11;;;;;;;64.68;27.33;;;-6.80;99.90;;;;;;5066939;28;20367;-48
2022/12/13 04:23:37;;;;;;;59.55;25.73;;;-6.80;99.90;;;;;;5081674;28;20063;-49
2022/12/13 04:26:03;;;;;;;55.60;27.33;;;-6.70;99.90;;;;;;5066544;28;20127;-47
2022/12/13 04:28:28;;;;;;;60.15;27.02;;;-6.70;99.90;;;;;;5064728;28;20049;-48
2022/12/13 04:30:54;;;;;;;52.20;26.42;;;-6.80;99.90;;;;;;5066681;28;20053;-48
2022/12/13 04:33:21;;;;;;;58.25;26.45;;;-6.70;99.90;;;;;;5066702;28;20036;-47
2022/12/13 04:35:47;;;;;;;61.28;26.75;;;-6.90;99.90;;;;;;5066688;28;20382;-49
2022/12/13 04:38:13;;;;;;;60.75;26.08;;;-6.90;99.90;;;;;;5082155;28;20047;-48
2022/12/13 04:40:38;;;;;;;53.97;25.30;;;-6.90;99.90;;;;;;5066646;28;20060;-47
2022/12/13 04:43:04;;;;;;;60.95;25.95;;;-6.90;99.90;;;;;;5082089;28;20088;-50
2022/12/13 04:45:30;;;;;;;57.17;26.33;;;-6.90;99.90;;;;;;5066792;28;20079;-48
2022/12/13 04:47:55;;;;;;;55.15;23.70;;;-6.80;99.90;;;;;;5066770;28;20117;-47
2022/12/13 04:50:21;;;;;;;62.08;27.58;;;-6.90;99.90;;;;;;5066515;28;20123;-48
2022/12/13 04:52:47;;;;;;;57.75;26.40;;;-6.80;99.90;;;;;;5082026;28;20052;-46
2022/12/13 04:55:13;;;;;;;60.47;26.67;;;-6.70;99.90;;;;;;5082176;28;20052;-46
2022/12/13 04:57:39;;;;;;;67.55;28.80;;;-6.70;99.90;;;;;;5067491;28;20056;-48
2022/12/13 05:00:07;;;;;;;70.20;30.27;;;-6.70;99.90;;;;;;5070238;28;20474;-48
2022/12/13 05:02:33;;;;;;;69.90;28.83;;;-6.70;99.90;;;;;;5068723;28;20097;-49
2022/12/13 05:04:59;;;;;;;63.42;27.45;;;-6.60;99.90;;;;;;5083932;28;20045;-48
2022/12/13 05:07:25;;;;;;;62.05;28.38;;;-6.70;99.90;;;;;;5069601;28;20051;-49
2022/12/13 05:09:51;;;;;;;60.08;27.70;;;-6.70;99.90;;;;;;5068990;28;20481;-52
2022/12/13 05:12:16;;;;;;;62.97;27.58;;;-6.70;99.90;;;;;;5067966;28;20083;-54
2022/12/13 05:14:42;;;;;;;65.63;28.80;;;-6.70;99.90;;;;;;5067755;28;20047;-54
2022/12/13 05:17:08;;;;;;;66.55;27.50;;;-6.70;99.90;;;;;;5083011;28;20165;-58
2022/12/13 05:19:33;;;;;;;60.83;27.73;;;-6.80;99.90;;;;;;5083783;28;20491;-54
2022/12/13 05:21:59;;;;;;;59.03;26.95;;;-6.80;99.90;;;;;;5068220;28;20070;-54
2022/12/13 05:24:25;;;;;;;68.05;28.80;;;-6.80;99.90;;;;;;5067889;28;20048;-55
2022/12/13 05:26:51;;;;;;;66.95;27.50;;;-6.80;99.90;;;;;;5069430;28;20093;-55
2022/12/13 05:29:17;;;;;;;68.25;28.92;;;-6.90;99.90;;;;;;5084254;28;20044;-47
2022/12/13 05:31:42;;;;;;;69.28;29.33;;;-6.90;99.90;;;;;;5068123;28;20497;-48
2022/12/13 05:34:08;;;;;;;64.47;28.27;;;-6.80;99.90;;;;;;5068527;28;20048;-49
2022/12/13 05:36:34;;;;;;;66.93;30.20;;;-6.80;99.90;;;;;;5083666;28;20152;-50
2022/12/13 05:38:59;;;;;;;62.30;28.35;;;-6.80;99.90;;;;;;5068707;28;20719;-48
2022/12/13 05:41:27;;;;;;;66.93;29.05;;;-6.80;99.90;;;;;;5068409;28;20044;-48
2022/12/13 05:43:53;;;;;;;66.55;29.58;;;-6.90;99.90;;;;;;5068478;28;20091;-49
2022/12/13 05:46:19;;;;;;;64.50;28.70;;;-6.90;99.90;;;;;;5084250;28;20076;-48
2022/12/13 05:48:45;;;;;;;77.53;29.52;;;-6.90;99.90;;;;;;5068541;28;20040;-47
2022/12/13 05:51:11;;;;;;;65.20;28.60;;;-6.80;99.90;;;;;;5068675;28;20479;-47
2022/12/13 05:53:38;;;;;;;68.47;27.83;;;-6.80;99.90;;;;;;5066866;28;20045;-48
2022/12/13 05:56:04;;;;;;;68.97;29.88;;;-6.80;99.90;;;;;;5083857;28;20053;-47
2022/12/13 05:58:29;;;;;;;63.97;27.15;;;-6.90;99.90;;;;;;5066563;28;20048;-48
2022/12/13 06:01:04;;;;;;;66.93;28.70;;;-6.90;99.90;;;;;;5068286;28;20528;-49
2022/12/13 06:03:29;;;;;;;66.47;28.25;;;-6.90;99.90;;;;;;5068496;28;20510;-48
2022/12/13 06:05:59;;;;;;;63.08;28.85;;;-6.90;99.90;;;;;;5068382;28;20119;-49
2022/12/13 06:08:24;;;;;;;68.03;28.58;;;-6.90;99.90;;;;;;5067617;28;20137;-49
2022/12/13 06:10:55;;;;;;;75.95;32.15;;;-7.00;99.90;;;;;;5067204;28;20044;-47
2022/12/13 06:13:21;;;;;;;70.28;31.38;;;-6.90;99.90;;;;;;5068262;28;20044;-47
2022/12/13 06:15:47;;;;;;;70.72;29.55;;;-6.90;99.90;;;;;;5067542;28;20041;-46
2022/12/13 06:18:12;;;;;;;69.82;30.48;;;-6.90;99.90;;;;;;5067434;28;20036;-47
2022/12/13 06:20:38;;;;;;;78.75;31.60;;;-6.90;99.90;;;;;;5067516;28;20094;-48
2022/12/13 06:23:03;;;;;;;66.65;30.75;;;-6.90;99.90;;;;;;5067162;28;20040;-48
2022/12/13 06:25:29;;;;;;;84.22;32.38;;;-7.00;99.90;;;;;;5067956;28;20049;-47
2022/12/13 06:27:55;;;;;;;75.95;31.33;;;-6.90;99.90;;;;;;5066065;28;20089;-47
2022/12/13 06:30:20;;;;;;;71.32;30.85;;;-6.90;99.90;;;;;;5067881;28;20052;-50
2022/12/13 06:32:49;;;;;;;75.30;30.63;;;-6.90;99.90;;;;;;5067680;28;20048;-48
2022/12/13 06:35:15;;;;;;;72.07;30.08;;;-7.00;99.90;;;;;;5067659;28;20051;-47
2022/12/13 06:37:41;;;;;;;71.68;30.38;;;-6.80;99.90;;;;;;5068270;28;20405;-48
2022/12/13 06:40:07;;;;;;;75.90;30.60;;;-6.90;99.90;;;;;;5067949;28;20097;-49
2022/12/13 06:42:32;;;;;;;77.70;33.65;;;-6.90;99.90;;;;;;5067844;28;20044;-48
2022/12/13 06:44:58;;;;;;;78.40;31.95;;;-6.90;99.90;;;;;;5067008;28;20057;-47
2022/12/13 06:47:25;;;;;;;76.35;32.47;;;-6.80;99.90;;;;;;5067678;28;20056;-48
2022/12/13 06:49:51;;;;;;;76.03;31.70;;;-6.80;99.90;;;;;;5067333;28;20516;-48
2022/12/13 06:52:17;;;;;;;80.35;31.20;;;-7.00;99.90;;;;;;5067191;28;20053;-50
2022/12/13 06:54:43;;;;;;;71.65;30.95;;;-7.00;99.90;;;;;;5066026;28;20048;-47
2022/12/13 06:57:10;;;;;;;78.43;32.47;;;-7.00;99.90;;;;;;5067478;28;20474;-49
2022/12/13 06:59:36;;;;;;;68.68;27.77;;;-7.00;99.90;;;;;;5067191;28;20047;-48
2022/12/13 07:02:03;;;;;;;69.18;29.33;;;-7.10;99.90;;;;;;5067101;28;20036;-47
2022/12/13 07:04:28;;;;;;;69.13;30.25;;;-7.00;99.90;;;;;;5067016;28;20036;-48
2022/12/13 07:06:54;;;;;;;64.63;28.77;;;-7.10;99.90;;;;;;5066989;28;20401;-47
2022/12/13 07:09:19;;;;;;;73.47;29.63;;;-7.20;99.90;;;;;;5067439;28;20050;-48
2022/12/13 07:11:45;;;;;;;65.50;28.55;;;-7.30;99.90;;;;;;5066743;28;20033;-47
2022/12/13 07:14:11;;;;;;;70.68;28.80;;;-7.30;99.90;;;;;;5066984;28;20048;-47
2022/12/13 07:16:36;;;;;;;66.57;28.92;;;-7.20;99.90;;;;;;5066897;28;20048;-46
2022/12/13 07:19:03;;;;;;;77.68;32.40;;;-7.20;99.90;;;;;;5066697;28;20412;-49
2022/12/13 07:21:30;;;;;;;66.63;29.88;;;-7.20;99.90;;;;;;5066552;28;20048;-47
2022/12/13 07:23:56;;;;;;;71.10;29.95;;;-7.20;99.90;;;;;;5066965;28;20043;-47
2022/12/13 07:26:22;;;;;;;69.85;28.77;;;-7.20;99.90;;;;;;5067211;28;20036;-47
2022/12/13 07:28:47;;;;;;;75.40;31.42;;;-7.20;99.90;;;;;;5066596;28;20137;-46
2022/12/13 07:31:13;;;;;;;78.40;31.35;;;-7.30;99.90;;;;;;5066589;28;20094;-47
2022/12/13 07:33:39;;;;;;;72.28;30.77;;;-7.10;99.90;;;;;;5065984;28;20117;-48
2022/12/13 07:36:16;;;;;;;76.72;30.92;;;-7.10;99.90;;;;;;5066215;28;20047;-48
2022/12/13 07:38:41;;;;;;;80.57;32.03;;;-7.20;99.90;;;;;;5066634;28;20048;-46
2022/12/13 07:41:07;;;;;;;83.47;32.42;;;-7.10;99.90;;;;;;5066557;28;20040;-49
2022/12/13 07:43:34;;;;;;;82.53;34.45;;;-7.10;99.90;;;;;;5066412;28;20089;-47
2022/12/13 07:46:02;;;;;;;83.72;31.83;;;-7.00;99.90;;;;;;5066570;28;20041;-47
2022/12/13 07:48:29;;;;;;;79.93;32.70;;;-7.00;99.90;;;;;;5066986;28;20044;-47
2022/12/13 07:51:01;;;;;;;79.68;32.65;;;-7.10;99.90;;;;;;5066599;28;20371;-47
2022/12/13 07:53:27;;;;;;;80.90;30.67;;;-7.00;99.90;;;;;;5066694;28;20033;-46
2022/12/13 07:55:53;;;;;;;73.45;30.98;;;-6.90;99.90;;;;;;5066627;28;20275;-48
2022/12/13 07:58:19;;;;;;;85.18;30.50;;;-6.90;99.90;;;;;;5081842;28;20481;-47
2022/12/13 08:00:45;;;;;;;70.68;30.75;;;-6.80;99.90;;;;;;5066355;28;20040;-48
2022/12/13 08:03:12;;;;;;;83.25;31.67;;;-5.70;99.90;;;;;;5082243;28;20472;-48
2022/12/13 08:05:38;;;;;;;94.75;31.27;;;-6.40;99.90;;;;;;5066547;28;20470;-47
2022/12/13 08:08:08;;;;;;;84.03;32.78;;;-6.50;99.90;;;;;;5066469;28;20048;-48
2022/12/13 08:10:35;;;;;;;81.32;32.10;;;-6.50;99.90;;;;;;5082288;28;20091;-47
2022/12/13 08:13:01;;;;;;;106.22;38.38;;;-6.30;99.90;;;;;;5066038;28;20557;-47
2022/12/13 08:15:27;;;;;;;85.80;34.58;;;-6.20;99.90;;;;;;5066014;28;20040;-47
2022/12/13 08:17:59;;;;;;;93.82;35.80;;;-6.10;99.90;;;;;;5065337;28;20440;-47
2022/12/13 08:20:25;;;;;;;95.80;36.22;;;-6.10;99.90;;;;;;5065991;28;20101;-48
2022/12/13 08:22:55;;;;;;;87.95;35.17;;;-6.00;99.90;;;;;;5066197;28;20040;-47
2022/12/13 08:25:21;;;;;;;100.20;35.25;;;-6.00;99.90;;;;;;5081179;28;20613;-49
2022/12/13 08:27:46;;;;;;;91.90;35.38;;;-5.90;99.90;;;;;;5066181;28;20106;-48
2022/12/13 08:30:12;;;;;;;95.40;36.22;;;-5.90;99.90;;;;;;5065656;28;20071;-47
2022/12/13 08:32:38;;;;;;;90.03;36.55;;;-5.90;99.90;;;;;;5066427;28;20640;-47
2022/12/13 08:35:04;;;;;;;88.47;36.38;;;-5.70;99.90;;;;;;5068756;28;20074;-48
2022/12/13 08:37:29;;;;;;;101.20;38.40;;;-5.80;99.90;;;;;;5069021;28;20110;-47
2022/12/13 08:39:55;;;;;;;85.55;33.80;;;-5.70;99.90;;;;;;5068720;28;20036;-47
2022/12/13 08:42:20;;;;;;;90.15;36.53;;;-4.90;99.90;;;;;;5069275;28;20040;-47
2022/12/13 08:44:50;;;;;;;86.10;37.35;;;-5.60;99.90;;;;;;5068698;28;20052;-47
2022/12/13 08:47:19;;;;;;;91.32;37.63;;;-5.50;99.90;;;;;;5069125;28;20048;-48
2022/12/13 08:49:44;;;;;;;105.47;40.40;;;-5.30;99.90;;;;;;5069101;28;20091;-48
2022/12/13 08:52:10;;;;;;;100.97;38.05;;;-5.30;99.90;;;;;;5069048;28;20080;-47
2022/12/13 08:54:36;;;;;;;96.15;38.38;;;-5.20;99.90;;;;;;5069029;28;20489;-48
2022/12/13 08:57:01;;;;;;;101.40;37.95;;;-5.00;99.90;;;;;;5068721;28;20079;-48
2022/12/13 08:59:27;;;;;;;95.03;37.90;;;-5.00;99.90;;;;;;5068708;28;20466;-50
2022/12/13 09:01:53;;;;;;;101.00;39.38;;;-4.90;99.90;;;;;;5068887;28;20509;-50
2022/12/13 09:04:19;;;;;;;93.90;38.15;;;-4.90;99.90;;;;;;5084259;28;20055;-49
2022/12/13 09:06:44;;;;;;;92.60;37.97;;;-4.70;99.90;;;;;;5068866;28;20821;-48
2022/12/13 09:09:10;;;;;;;94.07;36.47;;;-4.70;99.90;;;;;;5069268;28;20455;-47
2022/12/13 09:11:38;;;;;;;90.70;36.03;;;-4.70;99.90;;;;;;5069226;28;20053;-49
2022/12/13 09:14:04;;;;;;;90.35;35.63;;;-4.60;99.90;;;;;;5068797;28;20041;-49
2022/12/13 09:16:30;;;;;;;99.90;37.55;;;-4.50;99.90;;;;;;5068549;28;20044;-50
2022/12/13 09:18:55;;;;;;;90.25;37.05;;;-4.40;99.90;;;;;;5069118;28;20036;-48
2022/12/13 09:21:22;;;;;;;93.25;37.33;;;-4.30;99.90;;;;;;5069452;28;20136;-48
2022/12/13 09:23:47;;;;;;;93.25;36.85;;;-4.30;99.90;;;;;;5068749;28;20036;-48
2022/12/13 09:26:15;;;;;;;90.82;38.22;;;-4.20;99.90;;;;;;5068926;28;20043;-51
2022/12/13 09:28:41;;;;;;;99.57;39.10;;;-4.10;99.90;;;;;;5069301;28;20064;-49
2022/12/13 09:31:18;;;;;;;90.13;36.92;;;-4.00;99.90;;;;;;5069068;28;20098;-50
2022/12/13 09:33:44;;;;;;;92.13;36.92;;;-3.10;99.90;;;;;;5068686;28;20048;-51
2022/12/13 09:36:16;;;;;;;89.05;37.75;;;-3.70;99.90;;;;;;5069048;28;20127;-50
2022/12/13 09:38:42;;;;;;;89.93;39.67;;;-3.70;99.90;;;;;;5068936;28;20076;-50
2022/12/13 09:41:10;;;;;;;96.43;38.25;;;-3.70;99.90;;;;;;5069098;28;20038;-48
2022/12/13 09:43:37;;;;;;;94.80;38.03;;;-3.80;99.90;;;;;;5032813;28;20083;-50
2022/12/13 09:46:10;;;;;;;95.75;37.10;;;-3.80;99.90;;;;;;5046991;28;20088;-49
2022/12/13 09:48:36;;;;;;;85.32;35.97;;;-3.60;99.90;;;;;;5047156;28;20105;-50
2022/12/13 09:51:02;;;;;;;96.57;37.17;;;-3.60;99.90;;;;;;5046502;28;20041;-49
2022/12/13 09:53:28;;;;;;;92.18;36.60;;;-3.70;99.90;;;;;;5046590;28;20048;-49
2022/12/13 09:55:54;;;;;;;92.68;37.60;;;-3.70;99.90;;;;;;5046257;28;20045;-49
2022/12/13 09:58:24;;;;;;;90.55;36.83;;;-3.70;99.90;;;;;;5046675;28;20090;-50
2022/12/13 10:00:52;;;;;;;89.95;37.83;;;-3.70;99.90;;;;;;5047038;28;20037;-49
2022/12/13 10:03:20;;;;;;;86.32;36.70;;;-3.70;99.90;;;;;;5046567;28;20905;-49
2022/12/13 10:05:57;;;;;;;86.63;36.33;;;-3.70;99.90;;;;;;5046718;28;20110;-50
2022/12/13 10:08:33;;;;;;;84.32;37.30;;;-3.70;99.90;;;;;;5046743;28;20473;-50
2022/12/13 10:10:59;;;;;;;86.15;37.40;;;-3.80;99.90;;;;;;5046702;28;20047;-49
2022/12/13 10:13:45;;;;;;;80.30;37.33;;;-3.00;99.90;;;;;;5046707;28;20037;-48
2022/12/13 10:16:42;;;;;;;86.28;37.83;;;-3.60;99.90;;;;;;5046505;28;20052;-49
2022/12/13 10:19:23;;;;;;;80.07;36.22;;;-3.50;99.90;;;;;;5025461;28;20092;-49
2022/12/13 10:21:50;;;;;;;92.70;37.42;;;-3.50;99.90;;;;;;5046572;28;20045;-49
2022/12/13 10:24:26;;;;;;;84.50;36.15;;;-3.40;99.90;;;;;;5045673;28;20387;-50
2022/12/13 10:26:52;;;;;;;93.95;37.85;;;-3.50;99.90;;;;;;5046408;28;20048;-49
2022/12/13 10:29:19;;;;;;;89.20;35.97;;;-3.30;99.90;;;;;;5045926;28;20044;-51
2022/12/13 10:31:50;;;;;;;86.20;36.45;;;-3.30;99.90;;;;;;5046291;28;20091;-49
2022/12/13 10:34:21;;;;;;;81.90;36.97;;;-3.30;99.90;;;;;;5046246;28;20486;-49
2022/12/13 10:36:47;;;;;;;87.82;36.45;;;-3.20;99.90;;;;;;5046037;28;20132;-50
2022/12/13 10:39:35;;;;;;;83.22;35.67;;;-3.20;99.90;;;;;;5045922;28;20124;-49
2022/12/13 10:42:11;;;;;;;80.38;36.20;;;-3.20;99.90;;;;;;5046008;28;20128;-49
2022/12/13 10:44:37;;;;;;;79.18;35.60;;;-3.20;99.90;;;;;;5043304;28;20059;-49
2022/12/13 10:47:24;;;;;;;86.20;37.10;;;-3.20;99.90;;;;;;5045863;28;20045;-49
2022/12/13 10:49:51;;;;;;;85.30;38.40;;;-3.00;99.90;;;;;;5045621;28;20144;-49
2022/12/13 10:52:30;;;;;;;85.55;38.35;;;-3.00;99.90;;;;;;5045310;28;20394;-48
2022/12/13 10:55:01;;;;;;;84.35;36.75;;;-3.00;99.90;;;;;;5045315;28;20153;-48
2022/12/13 10:57:27;;;;;;;87.03;37.55;;;-2.90;99.90;;;;;;5045384;28;20450;-50
2022/12/13 10:59:53;;;;;;;73.50;36.33;;;-2.90;99.90;;;;;;5045472;28;20053;-49
2022/12/13 11:02:30;;;;;;;81.60;38.80;;;-1.50;99.90;;;;;;5045241;28;20064;-49
2022/12/13 11:04:57;;;;;;;86.63;36.90;;;-2.90;99.90;;;;;;5045821;28;20051;-48
2022/12/13 11:07:31;;;;;;;85.47;37.38;;;-2.80;99.90;;;;;;5045113;28;20523;-49
2022/12/13 11:10:36;;;;;;;79.53;37.63;;;-2.70;99.90;;;;;;5045612;28;20044;-50
2022/12/13 11:13:05;;;;;;;81.57;37.42;;;-2.80;99.90;;;;;;5042670;28;20049;-49
2022/12/13 11:15:34;;;;;;;85.05;38.55;;;-2.60;99.90;;;;;;5043530;28;20041;-61
2022/12/13 11:18:17;;;;;;;83.45;36.25;;;-2.60;99.90;;;;;;5044456;28;20149;-61
2022/12/13 11:21:04;;;;;;;80.80;36.30;;;-2.60;99.90;;;;;;5047161;28;20123;-61
2022/12/13 11:23:45;;;;;;;81.47;36.67;;;-2.80;99.90;;;;;;5046860;28;20080;-60
2022/12/13 11:26:17;;;;;;;92.68;39.17;;;-2.60;99.90;;;;;;5044260;28;20083;-60
2022/12/13 11:28:46;;;;;;;;;;;-2.60;99.90;;;;;;5045906;28;20049;-60
2022/12/13 11:31:33;;;;;;;93.57;37.75;;;-2.60;99.90;;;;;;5045509;28;19967;-60
2022/12/13 11:34:25;;;;;;;83.38;36.90;;;-2.60;99.90;;;;;;5045683;28;20045;-61
2022/12/13 11:37:12;;;;;;;84.55;36.92;;;-2.60;99.90;;;;;;5044719;28;20079;-61
2022/12/13 11:39:53;;;;;;;80.57;36.60;;;-2.60;99.90;;;;;;5043711;28;20044;-60
2022/12/13 11:42:51;;;;;;;74.05;35.88;;;-2.50;99.90;;;;;;5044931;28;20044;-60
2022/12/13 11:45:36;;;;;;;85.28;36.65;;;-2.40;99.90;;;;;;5032175;28;20106;-60
2022/12/13 11:48:05;;;;;;;86.75;37.33;;;-2.40;99.90;;;;;;5045583;28;20051;-60
2022/12/13 11:50:36;;;;;;;83.15;39.50;;;-2.40;99.90;;;;;;5043291;28;20450;-60
2022/12/13 11:53:47;;;;;;;79.65;36.28;;;-2.30;99.90;;;;;;5044963;28;20044;-64
2022/12/13 11:56:22;;;;;;;82.35;38.55;;;-2.30;99.90;;;;;;5044806;28;20101;-64
2022/12/13 11:59:14;;;;;;;78.25;37.08;;;-2.10;99.90;;;;;;5045162;28;20080;-64
2022/12/13 12:02:23;;;;;;;80.60;37.90;;;-2.30;99.90;;;;;;5044831;28;20072;-62
2022/12/13 12:04:54;;;;;;;80.97;37.08;;;-2.20;99.90;;;;;;5045316;28;20123;-62
2022/12/13 12:07:34;;;;;;;78.60;35.13;;;-2.10;99.90;;;;;;5046978;28;20072;-62
2022/12/13 12:10:12;;;;;;;84.32;36.25;;;-2.10;99.90;;;;;;5049105;28;20053;-62
2022/12/13 12:12:44;;;;;;;79.22;35.75;;;-2.10;99.90;;;;;;5048678;28;20060;-61
2022/12/13 12:15:31;;;;;;;71.88;36.17;;;-2.00;99.90;;;;;;5048627;28;20052;-48
2022/12/13 12:17:57;;;;;;;77.53;37.00;;;-2.00;99.90;;;;;;5048336;28;20664;-49
2022/12/13 12:20:45;;;;;;;79.88;38.08;;;-2.10;99.90;;;;;;5048410;28;20103;-50
2022/12/13 12:23:22;;;;;;;76.10;37.35;;;-2.00;99.90;;;;;;5048009;28;20554;-48
2022/12/13 12:26:15;;;;;;;82.97;38.85;;;-2.10;99.90;;;;;;5048978;28;20049;-48
2022/12/13 12:28:43;;;;;;;82.28;35.92;;;-2.00;99.90;;;;;;5047893;28;20068;-47
2022/12/13 12:31:43;;;;;;;82.68;40.55;;;-2.10;99.90;;;;;;5048776;28;20057;-48
2022/12/13 12:34:22;;;;;;;82.13;37.53;;;-2.10;99.90;;;;;;5048364;28;20183;-49
2022/12/13 12:37:11;;;;;;;77.30;37.60;;;-2.00;99.90;;;;;;5048407;28;20123;-47
2022/12/13 12:40:02;;;;;;;89.45;40.05;;;-2.10;99.90;;;;;;5048010;28;20084;-49
2022/12/13 12:42:47;;;;;;;75.55;36.53;;;-2.10;99.90;;;;;;5048148;28;20043;-50
2022/12/13 12:45:27;;;;;;;92.90;37.88;;;-2.20;99.90;;;;;;5027058;28;20199;-47
2022/12/13 12:47:56;;;;;;;83.72;38.75;;;-2.20;99.90;;;;;;5048436;28;20057;-62